sensor_id;sensor_type;location;lat;lon;timestamp;pressure;altitude;pressure_sealevel;temperature;humidity
77574;BME280;66710;48.868;9.080;2024-03-08T00:00:02;97940.94;;;1.51;86.38
77574;BME280;66710;48.868;9.080;2024-03-08T00:02:36;97933.91;;;1.43;87.02
77574;BME280;66710;48.868;9.080;2024-03-08T00:05:03;97934.84;;;1.50;86.53
77574;BME280;66710;48.868;9.080;2024-03-08T00:07:29;97925.97;;;1.43;86.90
77574;BME280;66710;48.868;9.080;2024-03-08T00:09:54;97929.34;;;1.37;87.11
77574;BME280;66710;48.868;9.080;2024-03-08T00:12:19;97926.06;;;1.35;87.03
77574;BME280;66710;48.868;9.080;2024-03-08T00:14:45;97922.78;;;1.33;87.28
77574;BME280;66710;48.868;9.080;2024-03-08T00:17:10;97919.06;;;1.27;87.48
77574;BME280;66710;48.868;9.080;2024-03-08T00:19:36;97920.59;;;1.22;87.74
77574;BME280;66710;48.868;9.080;2024-03-08T00:22:02;97914.03;;;1.18;87.37
77574;BME280;66710;48.868;9.080;2024-03-08T00:24:27;97912.09;;;1.12;87.61
77574;BME280;66710;48.868;9.080;2024-03-08T00:26:54;97921.78;;;1.04;88.14
77574;BME280;66710;48.868;9.080;2024-03-08T00:29:19;97916.19;;;0.99;87.89
77574;BME280;66710;48.868;9.080;2024-03-08T00:31:45;97919.56;;;0.93;88.09
77574;BME280;66710;48.868;9.080;2024-03-08T00:34:10;97913.56;;;0.85;87.84
77574;BME280;66710;48.868;9.080;2024-03-08T00:36:37;97910.53;;;0.88;88.79
77574;BME280;66710;48.868;9.080;2024-03-08T00:39:02;97909.72;;;0.87;87.95
77574;BME280;66710;48.868;9.080;2024-03-08T00:41:31;97899.13;;;0.87;88.51
77574;BME280;66710;48.868;9.080;2024-03-08T00:43:56;97899.88;;;0.81;87.85
77574;BME280;66710;48.868;9.080;2024-03-08T00:46:22;97901.88;;;0.79;87.58
77574;BME280;66710;48.868;9.080;2024-03-08T00:48:47;97895.94;;;0.77;87.95
77574;BME280;66710;48.868;9.080;2024-03-08T00:51:12;97894.81;;;0.71;88.28
77574;BME280;66710;48.868;9.080;2024-03-08T00:53:37;97895.72;;;0.64;88.79
77574;BME280;66710;48.868;9.080;2024-03-08T00:56:03;97897.75;;;0.62;88.52
77574;BME280;66710;48.868;9.080;2024-03-08T00:58:29;97901.00;;;0.64;88.45
77574;BME280;66710;48.868;9.080;2024-03-08T01:00:55;97895.72;;;0.64;88.05
77574;BME280;66710;48.868;9.080;2024-03-08T01:03:22;97897.56;;;0.63;88.33
77574;BME280;66710;48.868;9.080;2024-03-08T01:05:47;97894.66;;;0.73;88.05
77574;BME280;66710;48.868;9.080;2024-03-08T01:08:12;97887.19;;;0.76;87.95
77574;BME280;66710;48.868;9.080;2024-03-08T01:10:38;97885.34;;;0.77;87.70
77574;BME280;66710;48.868;9.080;2024-03-08T01:13:03;97883.09;;;0.74;87.64
77574;BME280;66710;48.868;9.080;2024-03-08T01:15:28;97885.81;;;0.80;87.35
77574;BME280;66710;48.868;9.080;2024-03-08T01:17:54;97875.16;;;0.74;87.97
77574;BME280;66710;48.868;9.080;2024-03-08T01:20:19;97876.31;;;0.71;87.60
77574;BME280;66710;48.868;9.080;2024-03-08T01:22:44;97875.16;;;0.74;88.37
77574;BME280;66710;48.868;9.080;2024-03-08T01:25:10;97869.19;;;0.72;87.83
77574;BME280;66710;48.868;9.080;2024-03-08T01:27:35;97861.19;;;0.65;88.24
77574;BME280;66710;48.868;9.080;2024-03-08T01:30:02;97861.06;;;0.59;87.99
77574;BME280;66710;48.868;9.080;2024-03-08T01:32:28;97860.06;;;0.60;87.83
77574;BME280;66710;48.868;9.080;2024-03-08T01:34:53;97853.97;;;0.59;88.76
77574;BME280;66710;48.868;9.080;2024-03-08T01:37:18;97856.06;;;0.49;88.10
77574;BME280;66710;48.868;9.080;2024-03-08T01:39:45;97852.38;;;0.35;88.78
77574;BME280;66710;48.868;9.080;2024-03-08T01:42:10;97850.72;;;0.34;89.30
77574;BME280;66710;48.868;9.080;2024-03-08T01:44:38;97843.19;;;0.46;88.93
77574;BME280;66710;48.868;9.080;2024-03-08T01:47:04;97849.97;;;0.48;88.51
77574;BME280;66710;48.868;9.080;2024-03-08T01:49:30;97836.38;;;0.51;87.86
77574;BME280;66710;48.868;9.080;2024-03-08T01:51:56;97827.63;;;0.51;87.92
77574;BME280;66710;48.868;9.080;2024-03-08T01:54:22;97833.81;;;0.58;87.60
77574;BME280;66710;48.868;9.080;2024-03-08T01:56:48;97821.44;;;0.59;87.55
77574;BME280;66710;48.868;9.080;2024-03-08T01:59:14;97819.69;;;0.66;87.17
77574;BME280;66710;48.868;9.080;2024-03-08T02:01:40;97809.31;;;0.64;87.15
77574;BME280;66710;48.868;9.080;2024-03-08T02:04:05;97817.25;;;0.64;87.37
77574;BME280;66710;48.868;9.080;2024-03-08T02:06:34;97804.56;;;0.60;86.62
77574;BME280;66710;48.868;9.080;2024-03-08T02:09:00;97801.00;;;0.52;87.29
77574;BME280;66710;48.868;9.080;2024-03-08T02:11:25;97809.94;;;0.51;87.49
77574;BME280;66710;48.868;9.080;2024-03-08T02:13:51;97797.00;;;0.57;87.06
77574;BME280;66710;48.868;9.080;2024-03-08T02:16:22;97793.56;;;0.56;86.59
77574;BME280;66710;48.868;9.080;2024-03-08T02:18:48;97797.50;;;0.60;86.58
77574;BME280;66710;48.868;9.080;2024-03-08T02:21:13;97790.47;;;0.67;86.14
77574;BME280;66710;48.868;9.080;2024-03-08T02:23:43;97778.41;;;0.65;86.17
77574;BME280;66710;48.868;9.080;2024-03-08T02:26:08;97779.69;;;0.69;86.29
77574;BME280;66710;48.868;9.080;2024-03-08T02:28:33;97776.25;;;0.68;86.43
77574;BME280;66710;48.868;9.080;2024-03-08T02:30:59;97771.31;;;0.65;86.26
77574;BME280;66710;48.868;9.080;2024-03-08T02:33:27;97766.81;;;0.66;85.78
77574;BME280;66710;48.868;9.080;2024-03-08T02:35:52;97774.59;;;0.67;86.14
77574;BME280;66710;48.868;9.080;2024-03-08T02:38:19;97763.22;;;0.67;85.74
77574;BME280;66710;48.868;9.080;2024-03-08T02:40:46;97767.56;;;0.60;86.53
77574;BME280;66710;48.868;9.080;2024-03-08T02:43:13;97761.47;;;0.59;86.04
77574;BME280;66710;48.868;9.080;2024-03-08T02:45:39;97765.50;;;0.55;85.90
77574;BME280;66710;48.868;9.080;2024-03-08T02:48:07;97764.47;;;0.56;86.06
77574;BME280;66710;48.868;9.080;2024-03-08T02:50:32;97758.91;;;0.51;86.14
77574;BME280;66710;48.868;9.080;2024-03-08T02:52:59;97765.41;;;0.48;85.78
77574;BME280;66710;48.868;9.080;2024-03-08T02:55:26;97758.72;;;0.52;85.64
77574;BME280;66710;48.868;9.080;2024-03-08T02:57:52;97762.09;;;0.46;85.86
77574;BME280;66710;48.868;9.080;2024-03-08T03:00:20;97753.16;;;0.47;85.78
77574;BME280;66710;48.868;9.080;2024-03-08T03:02:46;97753.53;;;0.44;85.90
77574;BME280;66710;48.868;9.080;2024-03-08T03:05:11;97748.97;;;0.38;85.90
77574;BME280;66710;48.868;9.080;2024-03-08T03:07:37;97752.06;;;0.42;85.73
77574;BME280;66710;48.868;9.080;2024-03-08T03:10:03;97757.72;;;0.39;85.89
77574;BME280;66710;48.868;9.080;2024-03-08T03:12:29;97751.91;;;0.43;86.07
77574;BME280;66710;48.868;9.080;2024-03-08T03:14:55;97745.63;;;0.44;85.34
77574;BME280;66710;48.868;9.080;2024-03-08T03:17:22;97745.53;;;0.38;85.88
77574;BME280;66710;48.868;9.080;2024-03-08T03:19:47;97747.34;;;0.37;85.54
77574;BME280;66710;48.868;9.080;2024-03-08T03:22:12;97740.69;;;0.26;85.81
77574;BME280;66710;48.868;9.080;2024-03-08T03:24:38;97747.31;;;0.22;86.34
77574;BME280;66710;48.868;9.080;2024-03-08T03:27:04;97745.50;;;0.23;86.05
77574;BME280;66710;48.868;9.080;2024-03-08T03:29:35;97737.22;;;0.26;86.11
77574;BME280;66710;48.868;9.080;2024-03-08T03:32:01;97739.59;;;0.21;86.27
77574;BME280;66710;48.868;9.080;2024-03-08T03:34:28;97729.03;;;0.21;86.18
77574;BME280;66710;48.868;9.080;2024-03-08T03:36:54;97728.00;;;0.22;86.07
77574;BME280;66710;48.868;9.080;2024-03-08T03:39:20;97724.09;;;0.18;85.97
77574;BME280;66710;48.868;9.080;2024-03-08T03:41:47;97722.00;;;0.13;86.82
77574;BME280;66710;48.868;9.080;2024-03-08T03:44:16;97715.81;;;0.06;86.63
77574;BME280;66710;48.868;9.080;2024-03-08T03:46:42;97717.44;;;0.07;86.49
77574;BME280;66710;48.868;9.080;2024-03-08T03:49:10;97717.16;;;0.02;86.56
77574;BME280;66710;48.868;9.080;2024-03-08T03:51:35;97725.09;;;0.02;86.65
77574;BME280;66710;48.868;9.080;2024-03-08T03:54:00;97717.34;;;0.01;86.63
77574;BME280;66710;48.868;9.080;2024-03-08T03:56:29;97712.06;;;0.01;86.86
77574;BME280;66710;48.868;9.080;2024-03-08T03:58:54;97718.78;;;0.03;86.70
77574;BME280;66710;48.868;9.080;2024-03-08T04:01:19;97712.31;;;0.06;86.27
77574;BME280;66710;48.868;9.080;2024-03-08T04:03:44;97708.41;;;0.02;86.46
77574;BME280;66710;48.868;9.080;2024-03-08T04:06:10;97716.63;;;0.07;86.33
77574;BME280;66710;48.868;9.080;2024-03-08T04:08:35;97717.16;;;0.02;86.30
77574;BME280;66710;48.868;9.080;2024-03-08T04:11:01;97715.53;;;0.01;86.63
77574;BME280;66710;48.868;9.080;2024-03-08T04:13:26;97707.59;;;0.01;86.44
77574;BME280;66710;48.868;9.080;2024-03-08T04:15:52;97698.75;;;-0.06;86.45
77574;BME280;66710;48.868;9.080;2024-03-08T04:18:17;97703.56;;;-0.10;86.75
77574;BME280;66710;48.868;9.080;2024-03-08T04:20:46;97704.69;;;-0.04;86.81
77574;BME280;66710;48.868;9.080;2024-03-08T04:23:11;97701.94;;;-0.11;86.98
77574;BME280;66710;48.868;9.080;2024-03-08T04:25:36;97693.47;;;-0.06;86.88
77574;BME280;66710;48.868;9.080;2024-03-08T04:28:01;97698.94;;;-0.08;86.96
77574;BME280;66710;48.868;9.080;2024-03-08T04:30:27;97697.28;;;-0.09;86.77
77574;BME280;66710;48.868;9.080;2024-03-08T04:32:53;97695.47;;;-0.08;86.77
77574;BME280;66710;48.868;9.080;2024-03-08T04:35:19;97697.28;;;-0.09;86.96
77574;BME280;66710;48.868;9.080;2024-03-08T04:37:45;97697.28;;;-0.09;86.64
77574;BME280;66710;48.868;9.080;2024-03-08T04:40:10;97692.19;;;-0.10;86.79
77574;BME280;66710;48.868;9.080;2024-03-08T04:42:37;97692.91;;;-0.16;87.03
77574;BME280;66710;48.868;9.080;2024-03-08T04:45:03;97696.75;;;-0.04;86.67
77574;BME280;66710;48.868;9.080;2024-03-08T04:47:29;97689.03;;;-0.06;86.85
77574;BME280;66710;48.868;9.080;2024-03-08T04:49:54;97687.50;;;0.00;86.14
77574;BME280;66710;48.868;9.080;2024-03-08T04:52:21;97685.66;;;0.01;86.40
77574;BME280;66710;48.868;9.080;2024-03-08T04:54:47;97690.47;;;0.12;85.65
77574;BME280;66710;48.868;9.080;2024-03-08T04:57:12;97675.63;;;0.11;85.81
77574;BME280;66710;48.868;9.080;2024-03-08T04:59:38;97686.47;;;0.16;85.67
77574;BME280;66710;48.868;9.080;2024-03-08T05:02:03;97677.28;;;0.26;85.09
77574;BME280;66710;48.868;9.080;2024-03-08T05:04:28;97673.28;;;0.16;85.16
77574;BME280;66710;48.868;9.080;2024-03-08T05:06:54;97680.13;;;0.25;85.06
77574;BME280;66710;48.868;9.080;2024-03-08T05:09:19;97674.44;;;0.28;85.76
77574;BME280;66710;48.868;9.080;2024-03-08T05:11:46;97683.09;;;0.22;85.73
77574;BME280;66710;48.868;9.080;2024-03-08T05:14:12;97677.94;;;0.14;85.73
77574;BME280;66710;48.868;9.080;2024-03-08T05:16:42;97671.53;;;0.23;85.45
77574;BME280;66710;48.868;9.080;2024-03-08T05:19:08;97674.19;;;0.23;85.29
77574;BME280;66710;48.868;9.080;2024-03-08T05:21:33;97672.91;;;0.19;85.66
77574;BME280;66710;48.868;9.080;2024-03-08T05:23:58;97678.44;;;0.24;85.33
77574;BME280;66710;48.868;9.080;2024-03-08T05:26:24;97676.72;;;0.16;85.79
77574;BME280;66710;48.868;9.080;2024-03-08T05:28:49;97676.28;;;0.13;85.70
77574;BME280;66710;48.868;9.080;2024-03-08T05:31:19;97679.09;;;0.11;86.07
77574;BME280;66710;48.868;9.080;2024-03-08T05:33:47;97667.63;;;0.04;86.17
77574;BME280;66710;48.868;9.080;2024-03-08T05:36:12;97667.53;;;-0.03;86.44
77574;BME280;66710;48.868;9.080;2024-03-08T05:38:37;97666.81;;;0.04;86.62
77574;BME280;66710;48.868;9.080;2024-03-08T05:41:03;97663.44;;;-0.05;86.38
77574;BME280;66710;48.868;9.080;2024-03-08T05:43:28;97667.63;;;-0.11;86.92
77574;BME280;66710;48.868;9.080;2024-03-08T05:45:53;97663.59;;;-0.07;86.97
77574;BME280;66710;48.868;9.080;2024-03-08T05:48:19;97665.31;;;-0.14;87.03
77574;BME280;66710;48.868;9.080;2024-03-08T05:50:44;97665.69;;;-0.17;87.00
77574;BME280;66710;48.868;9.080;2024-03-08T05:53:09;97666.72;;;-0.18;87.20
77574;BME280;66710;48.868;9.080;2024-03-08T05:55:35;97667.63;;;-0.11;87.10
77574;BME280;66710;48.868;9.080;2024-03-08T05:58:01;97664.97;;;-0.11;86.84
77574;BME280;66710;48.868;9.080;2024-03-08T06:00:27;97657.22;;;-0.12;87.15
77574;BME280;66710;48.868;9.080;2024-03-08T06:02:52;97662.41;;;-0.19;86.97
77574;BME280;66710;48.868;9.080;2024-03-08T06:05:18;97657.94;;;-0.18;87.28
77574;BME280;66710;48.868;9.080;2024-03-08T06:07:44;97658.06;;;-0.12;86.99
77574;BME280;66710;48.868;9.080;2024-03-08T06:10:10;97654.47;;;-0.19;87.26
77574;BME280;66710;48.868;9.080;2024-03-08T06:12:36;97658.78;;;-0.18;86.87
77574;BME280;66710;48.868;9.080;2024-03-08T06:15:08;97651.13;;;-0.13;87.21
77574;BME280;66710;48.868;9.080;2024-03-08T06:17:40;97660.72;;;-0.12;87.10
77574;BME280;66710;48.868;9.080;2024-03-08T06:20:06;97660.34;;;-0.09;87.12
77574;BME280;66710;48.868;9.080;2024-03-08T06:22:44;97661.97;;;-0.08;86.93
77574;BME280;66710;48.868;9.080;2024-03-08T06:25:11;97657.97;;;-0.04;87.31
77574;BME280;66710;48.868;9.080;2024-03-08T06:27:40;97658.97;;;-0.05;86.94
77574;BME280;66710;48.868;9.080;2024-03-08T06:30:07;97661.53;;;0.04;87.12
77574;BME280;66710;48.868;9.080;2024-03-08T06:32:35;97662.16;;;0.20;86.10
77574;BME280;66710;48.868;9.080;2024-03-08T06:35:01;97659.97;;;0.24;85.82
77574;BME280;66710;48.868;9.080;2024-03-08T06:37:27;97662.72;;;0.31;85.70
77574;BME280;66710;48.868;9.080;2024-03-08T06:39:52;97663.06;;;0.42;85.17
77574;BME280;66710;48.868;9.080;2024-03-08T06:42:20;97671.16;;;0.41;85.48
77574;BME280;66710;48.868;9.080;2024-03-08T06:44:45;97662.97;;;0.50;84.74
77574;BME280;66710;48.868;9.080;2024-03-08T06:47:15;97664.19;;;0.69;84.28
77574;BME280;66710;48.868;9.080;2024-03-08T06:49:42;97660.97;;;0.89;83.61
77574;BME280;66710;48.868;9.080;2024-03-08T06:52:08;97661.84;;;0.96;83.29
77574;BME280;66710;48.868;9.080;2024-03-08T06:54:34;97667.97;;;0.96;83.11
77574;BME280;66710;48.868;9.080;2024-03-08T06:57:02;97670.78;;;0.95;83.66
77574;BME280;66710;48.868;9.080;2024-03-08T06:59:29;97667.44;;;0.86;83.86
77574;BME280;66710;48.868;9.080;2024-03-08T07:01:54;97655.66;;;0.89;83.86
77574;BME280;66710;48.868;9.080;2024-03-08T07:04:20;97661.78;;;0.89;83.97
77574;BME280;66710;48.868;9.080;2024-03-08T07:06:49;97651.94;;;0.83;83.96
77574;BME280;66710;48.868;9.080;2024-03-08T07:09:15;97662.44;;;0.91;84.09
77574;BME280;66710;48.868;9.080;2024-03-08T07:11:42;97659.03;;;0.97;83.74
77574;BME280;66710;48.868;9.080;2024-03-08T07:14:07;97658.63;;;1.00;84.43
77574;BME280;66710;48.868;9.080;2024-03-08T07:16:34;97648.59;;;1.11;83.62
77574;BME280;66710;48.868;9.080;2024-03-08T07:19:00;97649.91;;;1.21;83.41
77574;BME280;66710;48.868;9.080;2024-03-08T07:21:26;97652.81;;;1.26;82.85
77574;BME280;66710;48.868;9.080;2024-03-08T07:23:51;97651.47;;;1.37;82.75
77574;BME280;66710;48.868;9.080;2024-03-08T07:26:25;97650.47;;;1.38;83.07
77574;BME280;66710;48.868;9.080;2024-03-08T07:28:51;97647.06;;;1.44;81.76
77574;BME280;66710;48.868;9.080;2024-03-08T07:31:17;97647.13;;;1.51;82.58
77574;BME280;66710;48.868;9.080;2024-03-08T07:33:52;97648.00;;;1.58;82.07
77574;BME280;66710;48.868;9.080;2024-03-08T07:36:18;97647.41;;;1.63;81.14
77574;BME280;66710;48.868;9.080;2024-03-08T07:38:44;97651.94;;;1.69;81.65
77574;BME280;66710;48.868;9.080;2024-03-08T07:41:12;97637.69;;;1.70;80.86
77574;BME280;66710;48.868;9.080;2024-03-08T07:43:37;97649.75;;;1.79;80.72
77574;BME280;66710;48.868;9.080;2024-03-08T07:46:03;97643.84;;;1.77;81.23
77574;BME280;66710;48.868;9.080;2024-03-08T07:48:28;97642.22;;;1.76;80.03
77574;BME280;66710;48.868;9.080;2024-03-08T07:50:53;97630.84;;;1.82;80.53
77574;BME280;66710;48.868;9.080;2024-03-08T07:53:19;97630.44;;;1.85;80.02
77574;BME280;66710;48.868;9.080;2024-03-08T07:55:44;97631.34;;;1.92;80.12
77574;BME280;66710;48.868;9.080;2024-03-08T07:58:10;97624.81;;;1.95;80.20
77574;BME280;66710;48.868;9.080;2024-03-08T08:00:36;97627.25;;;1.96;80.14
77574;BME280;66710;48.868;9.080;2024-03-08T08:03:02;97617.72;;;2.02;79.79
77574;BME280;66710;48.868;9.080;2024-03-08T08:05:28;97617.53;;;2.03;79.38
77574;BME280;66710;48.868;9.080;2024-03-08T08:07:53;97623.22;;;2.00;79.65
77574;BME280;66710;48.868;9.080;2024-03-08T08:10:18;97625.09;;;2.06;79.50
77574;BME280;66710;48.868;9.080;2024-03-08T08:12:49;97628.22;;;2.17;80.36
77574;BME280;66710;48.868;9.080;2024-03-08T08:15:14;97626.56;;;2.15;79.71
77574;BME280;66710;48.868;9.080;2024-03-08T08:17:49;97630.19;;;2.08;79.10
77574;BME280;66710;48.868;9.080;2024-03-08T08:20:14;97624.16;;;2.21;79.17
77574;BME280;66710;48.868;9.080;2024-03-08T08:22:40;97634.50;;;2.15;79.03
77574;BME280;66710;48.868;9.080;2024-03-08T08:25:07;97618.44;;;2.17;79.13
77574;BME280;66710;48.868;9.080;2024-03-08T08:27:32;97618.88;;;2.27;79.24
77574;BME280;66710;48.868;9.080;2024-03-08T08:29:58;97615.25;;;2.28;79.90
77574;BME280;66710;48.868;9.080;2024-03-08T08:32:23;97606.28;;;2.36;80.23
77574;BME280;66710;48.868;9.080;2024-03-08T08:34:49;97614.25;;;2.36;79.86
77574;BME280;66710;48.868;9.080;2024-03-08T08:37:14;97596.94;;;2.40;80.01
77574;BME280;66710;48.868;9.080;2024-03-08T08:39:39;97611.16;;;2.32;80.28
77574;BME280;66710;48.868;9.080;2024-03-08T08:42:05;97599.75;;;2.32;79.21
77574;BME280;66710;48.868;9.080;2024-03-08T08:44:30;97603.06;;;2.40;80.48
77574;BME280;66710;48.868;9.080;2024-03-08T08:46:57;97597.94;;;2.46;79.60
77574;BME280;66710;48.868;9.080;2024-03-08T08:49:22;97606.63;;;2.26;79.53
77574;BME280;66710;48.868;9.080;2024-03-08T08:51:49;97605.88;;;2.39;79.90
77574;BME280;66710;48.868;9.080;2024-03-08T08:54:15;97603.44;;;2.37;79.57
77574;BME280;66710;48.868;9.080;2024-03-08T08:56:42;97595.91;;;2.41;78.92
77574;BME280;66710;48.868;9.080;2024-03-08T08:59:09;97596.72;;;2.41;79.70
77574;BME280;66710;48.868;9.080;2024-03-08T09:01:34;97590.63;;;2.41;79.05
77574;BME280;66710;48.868;9.080;2024-03-08T09:03:59;97605.47;;;2.35;79.15
77574;BME280;66710;48.868;9.080;2024-03-08T09:06:24;97600.56;;;2.39;79.01
77574;BME280;66710;48.868;9.080;2024-03-08T09:08:51;97603.91;;;2.54;79.65
77574;BME280;66710;48.868;9.080;2024-03-08T09:11:16;97601.66;;;2.51;78.93
77574;BME280;66710;48.868;9.080;2024-03-08T09:13:44;97598.41;;;2.56;78.91
77574;BME280;66710;48.868;9.080;2024-03-08T09:16:10;97593.28;;;2.41;78.62
77574;BME280;66710;48.868;9.080;2024-03-08T09:18:35;97595.72;;;2.49;79.29
77574;BME280;66710;48.868;9.080;2024-03-08T09:21:01;97595.72;;;2.49;79.09
77574;BME280;66710;48.868;9.080;2024-03-08T09:23:26;97583.31;;;2.56;79.06
77574;BME280;66710;48.868;9.080;2024-03-08T09:25:57;97591.69;;;2.53;78.61
77574;BME280;66710;48.868;9.080;2024-03-08T09:28:23;97576.38;;;2.55;78.62
77574;BME280;66710;48.868;9.080;2024-03-08T09:30:49;97576.16;;;2.57;78.10
77574;BME280;66710;48.868;9.080;2024-03-08T09:33:14;97571.69;;;2.57;78.19
77574;BME280;66710;48.868;9.080;2024-03-08T09:35:44;97574.41;;;2.71;78.00
77574;BME280;66710;48.868;9.080;2024-03-08T09:38:11;97568.31;;;2.90;78.16
77574;BME280;66710;48.868;9.080;2024-03-08T09:40:38;97573.00;;;2.88;77.71
77574;BME280;66710;48.868;9.080;2024-03-08T09:43:03;97577.06;;;2.77;77.51
77574;BME280;66710;48.868;9.080;2024-03-08T09:45:31;97573.19;;;2.80;78.26
77574;BME280;66710;48.868;9.080;2024-03-08T09:47:57;97575.00;;;2.79;77.49
77574;BME280;66710;48.868;9.080;2024-03-08T09:50:22;97576.28;;;2.97;78.05
77574;BME280;66710;48.868;9.080;2024-03-08T09:52:48;97569.72;;;2.86;77.21
77574;BME280;66710;48.868;9.080;2024-03-08T09:55:15;97559.75;;;2.88;77.57
77574;BME280;66710;48.868;9.080;2024-03-08T09:57:43;97562.78;;;2.98;76.62
77574;BME280;66710;48.868;9.080;2024-03-08T10:00:28;97564.81;;;2.83;76.73
77574;BME280;66710;48.868;9.080;2024-03-08T10:02:53;97565.66;;;2.97;76.67
77574;BME280;66710;48.868;9.080;2024-03-08T10:05:19;97558.31;;;3.05;76.90
77574;BME280;66710;48.868;9.080;2024-03-08T10:07:45;97557.50;;;3.05;76.43
77574;BME280;66710;48.868;9.080;2024-03-08T10:10:10;97553.63;;;3.20;75.96
77574;BME280;66710;48.868;9.080;2024-03-08T10:12:38;97556.88;;;3.09;76.32
77574;BME280;66710;48.868;9.080;2024-03-08T10:15:08;97552.59;;;3.15;76.33
77574;BME280;66710;48.868;9.080;2024-03-08T10:17:34;97548.31;;;3.34;76.19
77574;BME280;66710;48.868;9.080;2024-03-08T10:20:00;97554.88;;;3.25;76.37
77574;BME280;66710;48.868;9.080;2024-03-08T10:22:26;97543.22;;;3.19;76.37
77574;BME280;66710;48.868;9.080;2024-03-08T10:24:51;97541.38;;;3.26;76.65
77574;BME280;66710;48.868;9.080;2024-03-08T10:27:17;97542.38;;;3.45;76.37
77574;BME280;66710;48.868;9.080;2024-03-08T10:29:47;97537.47;;;3.55;75.77
77574;BME280;66710;48.868;9.080;2024-03-08T10:32:13;97531.97;;;3.50;74.82
77574;BME280;66710;48.868;9.080;2024-03-08T10:34:38;97538.09;;;3.44;75.11
77574;BME280;66710;48.868;9.080;2024-03-08T10:37:04;97533.00;;;3.49;74.50
77574;BME280;66710;48.868;9.080;2024-03-08T10:39:37;97537.44;;;3.68;73.59
77574;BME280;66710;48.868;9.080;2024-03-08T10:42:04;97526.84;;;3.68;75.10
77574;BME280;66710;48.868;9.080;2024-03-08T10:47:01;97525.94;;;3.94;74.57
77574;BME280;66710;48.868;9.080;2024-03-08T10:52:41;97518.72;;;4.15;74.75
77574;BME280;66710;48.868;9.080;2024-03-08T10:55:09;97518.50;;;4.16;73.72
77574;BME280;66710;48.868;9.080;2024-03-08T10:57:38;97522.06;;;3.97;73.48
77574;BME280;66710;48.868;9.080;2024-03-08T11:00:06;97513.38;;;4.21;72.58
77574;BME280;66710;48.868;9.080;2024-03-08T11:02:35;97515.47;;;4.51;73.00
77574;BME280;66710;48.868;9.080;2024-03-08T11:05:01;97509.72;;;4.54;72.19
77574;BME280;66710;48.868;9.080;2024-03-08T11:07:33;97511.06;;;4.38;71.95
77574;BME280;66710;48.868;9.080;2024-03-08T11:10:02;97515.53;;;4.44;72.16
77574;BME280;66710;48.868;9.080;2024-03-08T11:12:36;97510.50;;;4.93;71.34
77574;BME280;66710;48.868;9.080;2024-03-08T11:15:10;97503.31;;;4.68;71.09
77574;BME280;66710;48.868;9.080;2024-03-08T11:20:09;97504.03;;;5.07;69.80
77574;BME280;66710;48.868;9.080;2024-03-08T11:22:41;97500.06;;;4.91;70.67
77574;BME280;66710;48.868;9.080;2024-03-08T11:25:30;97499.16;;;5.04;70.89
77574;BME280;66710;48.868;9.080;2024-03-08T11:28:17;97494.44;;;5.06;70.14
77574;BME280;66710;48.868;9.080;2024-03-08T11:30:44;97501.25;;;5.45;69.35
77574;BME280;66710;48.868;9.080;2024-03-08T11:33:14;97496.22;;;5.37;69.49
77574;BME280;66710;48.868;9.080;2024-03-08T11:35:41;97501.75;;;5.97;66.97
77574;BME280;66710;48.868;9.080;2024-03-08T11:38:08;97485.91;;;5.84;67.47
77574;BME280;66710;48.868;9.080;2024-03-08T11:40:35;97485.88;;;5.47;67.65
77574;BME280;66710;48.868;9.080;2024-03-08T11:43:01;97485.97;;;5.59;68.83
77574;BME280;66710;48.868;9.080;2024-03-08T11:45:29;97472.50;;;5.72;67.56
77574;BME280;66710;48.868;9.080;2024-03-08T11:47:54;97470.44;;;5.93;68.80
77574;BME280;66710;48.868;9.080;2024-03-08T11:50:20;97466.72;;;5.94;67.37
77574;BME280;66710;48.868;9.080;2024-03-08T11:52:50;97466.22;;;6.33;66.13
77574;BME280;66710;48.868;9.080;2024-03-08T11:55:15;97457.88;;;6.11;66.52
77574;BME280;66710;48.868;9.080;2024-03-08T11:57:41;97451.41;;;5.71;67.86
77574;BME280;66710;48.868;9.080;2024-03-08T12:00:15;97449.09;;;6.11;67.11
77574;BME280;66710;48.868;9.080;2024-03-08T12:03:01;97442.31;;;5.97;65.80
77574;BME280;66710;48.868;9.080;2024-03-08T12:05:26;97441.56;;;6.38;66.08
77574;BME280;66710;48.868;9.080;2024-03-08T12:07:59;97440.88;;;7.31;64.42
77574;BME280;66710;48.868;9.080;2024-03-08T12:10:25;97436.66;;;7.82;61.43
77574;BME280;66710;48.868;9.080;2024-03-08T12:12:52;97433.03;;;7.88;61.15
77574;BME280;66710;48.868;9.080;2024-03-08T12:15:20;97435.84;;;8.22;60.09
77574;BME280;66710;48.868;9.080;2024-03-08T12:17:47;97429.47;;;8.11;61.09
77574;BME280;66710;48.868;9.080;2024-03-08T12:20:24;97424.97;;;8.00;58.42
77574;BME280;66710;48.868;9.080;2024-03-08T12:22:51;97417.75;;;8.57;59.18
77574;BME280;66710;48.868;9.080;2024-03-08T12:25:18;97415.91;;;8.75;57.56
77574;BME280;66710;48.868;9.080;2024-03-08T12:27:44;97413.09;;;8.36;59.58
77574;BME280;66710;48.868;9.080;2024-03-08T12:30:23;97402.56;;;6.90;62.07
77574;BME280;66710;48.868;9.080;2024-03-08T12:32:56;97405.56;;;7.53;61.39
77574;BME280;66710;48.868;9.080;2024-03-08T12:35:23;97413.78;;;7.74;60.11
77574;BME280;66710;48.868;9.080;2024-03-08T12:37:52;97397.91;;;7.85;59.59
77574;BME280;66710;48.868;9.080;2024-03-08T12:40:18;97401.09;;;7.70;58.38
77574;BME280;66710;48.868;9.080;2024-03-08T12:42:44;97394.38;;;7.96;58.67
77574;BME280;66710;48.868;9.080;2024-03-08T12:45:15;97389.25;;;8.06;58.34
77574;BME280;66710;48.868;9.080;2024-03-08T12:47:41;97387.38;;;8.35;58.09
77574;BME280;66710;48.868;9.080;2024-03-08T12:50:08;97381.38;;;8.28;59.07
77574;BME280;66710;48.868;9.080;2024-03-08T12:52:34;97385.13;;;9.28;56.58
77574;BME280;66710;48.868;9.080;2024-03-08T12:55:00;97379.16;;;8.87;56.02
77574;BME280;66710;48.868;9.080;2024-03-08T12:57:33;97375.88;;;8.51;58.56
77574;BME280;66710;48.868;9.080;2024-03-08T12:59:59;97363.28;;;9.36;55.58
77574;BME280;66710;48.868;9.080;2024-03-08T13:02:25;97366.66;;;8.59;57.12
77574;BME280;66710;48.868;9.080;2024-03-08T13:04:51;97360.47;;;9.09;57.12
77574;BME280;66710;48.868;9.080;2024-03-08T13:07:22;97356.03;;;9.36;54.96
77574;BME280;66710;48.868;9.080;2024-03-08T13:09:49;97348.53;;;9.38;55.60
77574;BME280;66710;48.868;9.080;2024-03-08T13:12:14;97347.16;;;10.02;55.68
77574;BME280;66710;48.868;9.080;2024-03-08T13:14:41;97330.69;;;9.27;55.99